createdAt,value
2022-12-23T00:01:27.329Z,26.52
2022-12-23T00:04:00.425Z,29.67
2022-12-23T00:06:28.649Z,26.00
2022-12-23T00:08:58.865Z,24.63
2022-12-23T00:11:28.644Z,29.60
2022-12-23T00:14:20.528Z,25.67
2022-12-23T00:16:51.358Z,30.27
2022-12-23T00:19:21.033Z,26.13
2022-12-23T00:21:49.581Z,30.50
2022-12-23T00:24:20.272Z,22.98
2022-12-23T00:26:48.397Z,31.67
2022-12-23T00:29:16.490Z,25.65
2022-12-23T00:31:44.749Z,29.90
2022-12-23T00:34:13.365Z,25.23
2022-12-23T00:36:43.054Z,26.40
2022-12-23T00:39:31.130Z,26.88
2022-12-23T00:42:16.715Z,31.80
2022-12-23T00:44:45.023Z,31.95
2022-12-23T00:47:33.153Z,31.55
2022-12-23T00:50:00.314Z,27.05
2022-12-23T00:52:29.985Z,30.35
2022-12-23T00:54:58.086Z,32.40
2022-12-23T00:57:26.293Z,33.13
2022-12-23T00:59:54.341Z,30.48
2022-12-23T01:02:39.938Z,29.98
2022-12-23T01:08:18.653Z,30.92
2022-12-23T01:10:46.709Z,28.17
2022-12-23T01:13:14.819Z,25.98
2022-12-23T01:15:43.082Z,33.70
2022-12-23T01:18:11.200Z,31.77
2022-12-23T01:20:39.278Z,28.73
2022-12-23T01:23:07.484Z,27.63
2022-12-23T01:25:36.983Z,24.73
2022-12-23T01:28:05.519Z,25.95
2022-12-23T01:30:33.677Z,24.60
2022-12-23T01:33:04.897Z,25.02
2022-12-23T01:35:33.007Z,24.15
2022-12-23T01:38:01.244Z,33.28
2022-12-23T01:40:29.288Z,26.52
2022-12-23T01:42:57.733Z,32.28
2022-12-23T01:45:30.454Z,27.58
2022-12-23T01:48:02.150Z,26.58
2022-12-23T01:50:34.089Z,25.50
2022-12-23T01:53:07.971Z,26.58
2022-12-23T01:55:39.949Z,25.73
2022-12-23T01:58:14.647Z,23.65
2022-12-23T02:01:01.317Z,26.80
2022-12-23T02:03:45.383Z,23.33
2022-12-23T02:06:38.159Z,30.80
2022-12-23T02:09:19.455Z,24.90
2022-12-23T02:12:04.146Z,26.00
2022-12-23T02:15:04.285Z,30.17
2022-12-23T02:17:41.893Z,30.80
2022-12-23T02:20:37.428Z,28.65
2022-12-23T02:23:31.002Z,28.33
2022-12-23T02:26:16.400Z,25.55
2022-12-23T02:29:04.312Z,25.83
2022-12-23T02:31:40.418Z,25.45
2022-12-23T02:34:17.727Z,26.92
2022-12-23T02:36:55.351Z,25.65
2022-12-23T02:39:34.568Z,26.40
2022-12-23T02:42:08.889Z,29.13
2022-12-23T02:44:45.342Z,28.25
2022-12-23T02:47:21.048Z,26.90
2022-12-23T02:49:55.490Z,27.67
2022-12-23T02:52:28.360Z,27.00
2022-12-23T02:55:01.769Z,25.63
2022-12-23T02:57:35.590Z,27.15
2022-12-23T03:00:06.205Z,24.88
2022-12-23T03:02:39.639Z,25.75
2022-12-23T03:05:23.515Z,24.25
2022-12-23T03:07:53.230Z,26.30
2022-12-23T03:10:32.225Z,26.80
2022-12-23T03:13:08.938Z,29.45
2022-12-23T03:15:42.644Z,28.60
2022-12-23T03:18:23.959Z,27.35
2022-12-23T03:20:55.142Z,31.58
2022-12-23T03:23:27.959Z,31.20
2022-12-23T03:28:34.978Z,29.08
2022-12-23T03:31:05.015Z,31.42
2022-12-23T03:33:38.329Z,30.88
2022-12-23T03:36:11.817Z,30.35
2022-12-23T03:38:42.533Z,32.58
2022-12-23T03:41:17.491Z,30.10
2022-12-23T03:43:51.859Z,22.60
2022-12-23T03:46:24.821Z,23.05
2022-12-23T03:48:56.657Z,20.63
2022-12-23T03:51:32.730Z,19.73
2022-12-23T03:54:04.855Z,22.55
2022-12-23T03:56:37.215Z,21.35
2022-12-23T03:59:14.027Z,26.52
2022-12-23T04:02:03.008Z,22.73
2022-12-23T04:04:44.672Z,20.50
2022-12-23T04:07:19.081Z,22.00
2022-12-23T04:09:48.344Z,21.42
2022-12-23T04:12:16.689Z,19.25
2022-12-23T04:14:48.595Z,18.08
2022-12-23T04:17:17.431Z,18.30
2022-12-23T04:19:47.949Z,18.33
2022-12-23T04:22:17.533Z,15.60
2022-12-23T04:24:45.578Z,17.10
2022-12-23T04:27:15.235Z,17.38
2022-12-23T04:29:43.302Z,16.60
2022-12-23T04:32:11.810Z,15.48
2022-12-23T04:34:39.900Z,17.30
2022-12-23T04:37:09.417Z,17.25
2022-12-23T04:39:37.492Z,15.63
2022-12-23T04:42:05.678Z,16.25
2022-12-23T04:44:33.793Z,16.60
2022-12-23T04:47:01.991Z,16.20
2022-12-23T04:49:30.244Z,16.50
2022-12-23T04:51:58.403Z,13.48
2022-12-23T04:54:27.966Z,12.23
2022-12-23T04:56:56.140Z,15.05
2022-12-23T04:59:24.274Z,13.85
2022-12-23T05:01:55.012Z,13.30
2022-12-23T05:04:23.181Z,14.80
2022-12-23T05:06:51.360Z,13.98
2022-12-23T05:09:19.695Z,14.65
2022-12-23T05:11:49.146Z,15.68
2022-12-23T05:14:17.283Z,14.85
2022-12-23T05:16:45.488Z,13.77
2022-12-23T05:19:13.653Z,14.55
2022-12-23T05:21:41.691Z,16.42
2022-12-23T05:24:10.118Z,17.90
2022-12-23T05:26:38.625Z,16.33
2022-12-23T05:29:08.119Z,16.27
2022-12-23T05:31:36.312Z,17.90
2022-12-23T05:34:06.833Z,18.60
2022-12-23T05:36:35.510Z,18.05
2022-12-23T05:39:03.772Z,17.52
2022-12-23T05:41:31.789Z,17.85
2022-12-23T05:43:59.988Z,17.27
2022-12-23T05:46:31.842Z,20.63
2022-12-23T05:49:00.040Z,19.42
2022-12-23T05:51:28.101Z,18.35
2022-12-23T05:53:56.167Z,21.65
2022-12-23T05:56:24.287Z,20.80
2022-12-23T05:58:54.924Z,21.02
2022-12-23T06:01:23.044Z,21.92
2022-12-23T06:03:52.527Z,20.48
2022-12-23T06:06:20.654Z,22.15
2022-12-23T06:08:51.007Z,20.15
2022-12-23T06:11:22.742Z,23.15
2022-12-23T06:13:52.647Z,22.15
2022-12-23T06:16:20.813Z,20.17
2022-12-23T06:18:48.994Z,22.15
2022-12-23T06:21:18.411Z,20.55
2022-12-23T06:23:46.475Z,18.17
2022-12-23T06:26:14.606Z,19.45
2022-12-23T06:28:42.687Z,18.83
2022-12-23T06:31:10.985Z,18.27
2022-12-23T06:33:39.102Z,16.70
2022-12-23T06:36:08.879Z,18.27
2022-12-23T06:38:38.352Z,16.25
2022-12-23T06:41:06.739Z,17.25
2022-12-23T06:43:34.831Z,17.73
2022-12-23T06:46:03.087Z,15.95
2022-12-23T06:48:31.202Z,17.05
2022-12-23T06:50:59.356Z,20.73
2022-12-23T06:53:27.588Z,18.13
2022-12-23T06:56:02.063Z,16.83
2022-12-23T06:58:30.259Z,16.63
2022-12-23T07:00:58.522Z,18.17
2022-12-23T07:03:26.707Z,15.27
2022-12-23T07:05:55.261Z,15.27
2022-12-23T07:08:23.729Z,15.73
2022-12-23T07:10:51.969Z,17.20
2022-12-23T07:13:21.464Z,16.23
2022-12-23T07:15:49.580Z,19.00
2022-12-23T07:18:17.615Z,15.18
2022-12-23T07:20:45.752Z,17.33
2022-12-23T07:23:16.113Z,15.13
2022-12-23T07:25:44.354Z,17.10
2022-12-23T07:28:12.413Z,15.35
2022-12-23T07:30:41.892Z,15.52
2022-12-23T07:33:10.221Z,17.13
2022-12-23T07:35:38.301Z,18.08
2022-12-23T07:38:06.579Z,15.20
2022-12-23T07:40:34.708Z,19.17
2022-12-23T07:43:02.990Z,17.25
2022-12-23T07:45:31.502Z,16.70
2022-12-23T07:48:03.020Z,15.15
2022-12-23T07:50:31.282Z,16.33
2022-12-23T07:53:00.478Z,17.70
2022-12-23T07:55:31.376Z,21.17
2022-12-23T07:57:59.581Z,16.10
2022-12-23T08:00:27.741Z,17.73
2022-12-23T08:02:55.927Z,17.17
2022-12-23T08:05:25.529Z,18.08
2022-12-23T08:07:53.889Z,18.58
2022-12-23T08:10:22.636Z,18.05
2022-12-23T08:12:50.677Z,17.60
2022-12-23T08:15:18.780Z,18.90
2022-12-23T08:17:46.984Z,15.57
2022-12-23T08:20:15.108Z,16.10
2022-12-23T08:22:44.604Z,15.73
2022-12-23T08:25:13.050Z,16.30
2022-12-23T08:27:41.160Z,15.88
2022-12-23T08:30:10.689Z,16.25
2022-12-23T08:32:38.797Z,16.13
2022-12-23T08:35:07.820Z,15.60
2022-12-23T08:37:35.969Z,16.00
2022-12-23T08:40:06.172Z,15.55
2022-12-23T08:42:34.277Z,17.10
2022-12-23T08:45:02.408Z,15.40
2022-12-23T08:47:30.408Z,15.90
2022-12-23T08:49:58.517Z,16.67
2022-12-23T08:52:26.621Z,15.50
2022-12-23T08:54:54.782Z,17.30
2022-12-23T08:57:24.229Z,17.13
2022-12-23T08:59:52.924Z,16.48
2022-12-23T09:02:21.046Z,15.25
2022-12-23T09:04:49.295Z,18.20
2022-12-23T09:07:17.473Z,18.52
2022-12-23T09:09:45.542Z,18.40
2022-12-23T09:12:13.645Z,19.67
2022-12-23T09:14:47.639Z,20.70
2022-12-23T09:17:15.734Z,25.10
2022-12-23T09:19:48.637Z,25.90
2022-12-23T09:22:20.430Z,25.92
2022-12-23T09:24:48.550Z,26.02
2022-12-23T09:27:19.565Z,27.30
2022-12-23T09:29:49.069Z,25.45
2022-12-23T09:32:17.285Z,27.73
2022-12-23T09:34:45.410Z,28.33
2022-12-23T09:37:16.691Z,26.60
2022-12-23T09:39:44.739Z,27.05
2022-12-23T09:42:29.821Z,35.58
2022-12-23T09:45:13.075Z,32.80
2022-12-23T09:47:42.734Z,31.85
2022-12-23T09:50:21.518Z,36.00
2022-12-23T09:52:58.634Z,35.17
2022-12-23T09:55:34.526Z,38.47
2022-12-23T09:58:07.722Z,38.75
2022-12-23T10:00:43.915Z,37.83
2022-12-23T10:03:20.907Z,33.35
2022-12-23T10:06:00.671Z,40.80
2022-12-23T10:08:34.424Z,36.50
2022-12-23T10:11:07.932Z,36.03
2022-12-23T10:13:40.617Z,35.58
2022-12-23T10:18:49.946Z,34.55
2022-12-23T10:21:26.158Z,34.70
2022-12-23T10:23:55.720Z,34.20
2022-12-23T10:26:26.767Z,37.08
2022-12-23T10:29:00.401Z,34.67
2022-12-23T10:31:42.845Z,28.63
2022-12-23T10:34:20.567Z,30.30
2022-12-23T10:36:59.327Z,32.97
2022-12-23T10:39:36.710Z,30.38
2022-12-23T10:42:14.990Z,33.58
2022-12-23T10:45:02.297Z,31.90
2022-12-23T10:47:46.341Z,31.58
2022-12-23T10:50:35.794Z,29.65
2022-12-23T10:53:09.920Z,33.80
2022-12-23T10:55:39.981Z,32.63
2022-12-23T10:58:10.366Z,33.53
2022-12-23T11:00:42.501Z,33.70
2022-12-23T11:03:19.907Z,35.38
2022-12-23T11:05:51.366Z,34.47
2022-12-23T11:08:21.726Z,37.85
2022-12-23T11:10:50.288Z,34.17
2022-12-23T11:13:26.560Z,37.45
2022-12-23T11:16:13.123Z,38.47
2022-12-23T11:18:54.234Z,37.45
2022-12-23T11:21:22.398Z,37.65
2022-12-23T11:24:09.495Z,36.60
2022-12-23T11:26:37.798Z,41.83
2022-12-23T11:29:08.711Z,46.88
2022-12-23T11:31:37.543Z,44.33
2022-12-23T11:34:15.038Z,47.35
2022-12-23T11:36:43.635Z,43.55
2022-12-23T11:39:23.112Z,49.35
2022-12-23T11:41:55.205Z,52.15
2022-12-23T11:44:28.031Z,45.80
2022-12-23T11:46:56.202Z,54.55
2022-12-23T11:49:28.074Z,48.28
2022-12-23T11:52:11.241Z,47.90
2022-12-23T11:54:40.321Z,48.53
2022-12-23T11:57:18.471Z,51.97
2022-12-23T11:59:49.989Z,46.25
2022-12-23T12:02:23.463Z,43.28
2022-12-23T12:04:58.723Z,43.97
2022-12-23T12:07:27.575Z,42.08
2022-12-23T12:09:59.899Z,46.55
2022-12-23T12:12:29.997Z,48.15
2022-12-23T12:15:00.369Z,44.05
2022-12-23T12:17:36.026Z,38.20
2022-12-23T12:20:13.289Z,43.30
2022-12-23T12:22:46.230Z,42.30
2022-12-23T12:25:21.009Z,36.65
2022-12-23T12:27:55.335Z,40.42
2022-12-23T12:30:23.757Z,36.83
2022-12-23T12:32:57.713Z,37.03
2022-12-23T12:35:37.769Z,32.88
2022-12-23T12:38:20.523Z,34.67
2022-12-23T12:40:53.558Z,33.80
2022-12-23T12:43:28.882Z,34.28
2022-12-23T12:46:10.321Z,30.13
2022-12-23T12:48:46.440Z,33.03
2022-12-23T12:51:22.392Z,29.65
2022-12-23T12:54:05.071Z,37.05
2022-12-23T12:56:39.429Z,30.73
2022-12-23T12:59:07.562Z,34.38
2022-12-23T13:01:49.348Z,30.33
2022-12-23T13:04:45.308Z,30.45
2022-12-23T13:07:28.104Z,34.03
2022-12-23T13:10:04.782Z,32.47
2022-12-23T13:12:47.078Z,31.88
2022-12-23T13:15:24.105Z,29.52
2022-12-23T13:18:09.584Z,32.95
2022-12-23T13:20:44.442Z,34.30
2022-12-23T13:23:43.081Z,29.40
2022-12-23T13:26:19.820Z,30.80
2022-12-23T13:28:57.190Z,28.20
2022-12-23T13:31:40.060Z,29.90
2022-12-23T13:34:25.330Z,27.67
2022-12-23T13:39:44.018Z,28.33
2022-12-23T13:42:19.374Z,25.13
2022-12-23T13:44:47.693Z,24.25
2022-12-23T13:47:23.175Z,27.08
2022-12-23T13:50:01.114Z,26.30
2022-12-23T13:52:39.413Z,25.05
2022-12-23T13:55:22.695Z,26.25
2022-12-23T13:57:59.828Z,23.42
2022-12-23T14:00:32.612Z,24.92
2022-12-23T14:05:47.281Z,23.35
2022-12-23T14:08:27.043Z,22.92
2022-12-23T14:10:59.998Z,21.90
2022-12-23T14:13:31.779Z,21.00
2022-12-23T14:16:22.407Z,25.77
2022-12-23T14:19:28.798Z,24.08
2022-12-23T14:22:08.337Z,20.92
2022-12-23T14:25:00.344Z,25.17
2022-12-23T14:27:42.738Z,22.55
2022-12-23T14:30:16.881Z,21.80
2022-12-23T14:32:49.197Z,21.15
2022-12-23T14:35:26.912Z,22.05
2022-12-23T14:38:24.359Z,24.83
2022-12-23T14:41:12.435Z,20.42
2022-12-23T14:43:56.109Z,22.23
2022-12-23T14:47:02.689Z,20.90
2022-12-23T14:49:48.662Z,21.25
2022-12-23T14:52:49.221Z,19.25
2022-12-23T14:55:41.659Z,23.63
2022-12-23T14:58:24.227Z,21.38
2022-12-23T15:01:03.670Z,21.77
2022-12-23T15:03:36.251Z,17.52
2022-12-23T15:06:07.520Z,19.98
2022-12-23T15:08:40.412Z,19.30
2022-12-23T15:11:16.309Z,17.67
2022-12-23T15:13:44.809Z,18.42
2022-12-23T15:16:18.747Z,22.17
2022-12-23T15:18:57.281Z,19.55
2022-12-23T15:21:30.218Z,17.60
2022-12-23T15:23:58.358Z,21.77
2022-12-23T15:26:29.537Z,18.42
2022-12-23T15:28:59.196Z,18.63
2022-12-23T15:31:33.257Z,18.08
2022-12-23T15:34:13.228Z,20.23
2022-12-23T15:36:46.952Z,17.25
2022-12-23T15:39:21.899Z,15.95
2022-12-23T15:41:50.290Z,20.48
2022-12-23T15:44:22.267Z,17.70
2022-12-23T15:46:52.526Z,19.23
2022-12-23T15:49:21.715Z,18.92
2022-12-23T15:52:12.522Z,20.73
2022-12-23T15:54:46.622Z,19.38
2022-12-23T15:57:19.415Z,19.38
2022-12-23T16:02:58.968Z,19.10
2022-12-23T16:05:10.935Z,18.45
2022-12-23T16:07:41.758Z,20.40
2022-12-23T16:10:16.096Z,19.52
2022-12-23T16:12:45.098Z,20.75
2022-12-23T16:15:28.088Z,20.48
2022-12-23T16:20:44.613Z,22.63
2022-12-23T16:23:13.698Z,25.35
2022-12-23T16:25:50.242Z,23.17
2022-12-23T16:28:24.284Z,23.20
2022-12-23T16:30:54.853Z,21.65
2022-12-23T16:33:32.552Z,24.15
2022-12-23T16:39:00.914Z,24.30
2022-12-23T16:41:28.929Z,26.13
2022-12-23T16:43:57.048Z,25.48
2022-12-23T16:46:25.411Z,25.33
2022-12-23T16:48:55.980Z,24.98
2022-12-23T16:51:24.732Z,27.50
2022-12-23T16:53:56.290Z,26.63
2022-12-23T16:56:34.321Z,28.00
2022-12-23T16:59:02.669Z,28.02
2022-12-23T17:01:33.359Z,27.00
2022-12-23T17:04:01.826Z,26.00
2022-12-23T17:06:29.969Z,28.83
2022-12-23T17:08:58.154Z,30.25
2022-12-23T17:11:36.136Z,27.73
2022-12-23T17:14:07.961Z,27.20
2022-12-23T17:16:40.235Z,30.85
2022-12-23T17:19:08.375Z,31.48
2022-12-23T17:21:39.016Z,32.28
2022-12-23T17:24:10.909Z,30.23
2022-12-23T17:26:40.390Z,31.93
2022-12-23T17:29:08.602Z,33.53
2022-12-23T17:31:36.988Z,30.83
2022-12-23T17:34:11.661Z,31.02
2022-12-23T17:36:44.388Z,22.77
2022-12-23T17:39:16.380Z,23.23
2022-12-23T17:41:45.947Z,22.60
2022-12-23T17:44:15.961Z,22.20
2022-12-23T17:46:44.354Z,22.42
2022-12-23T17:49:14.860Z,23.38
2022-12-23T17:51:43.947Z,24.60
2022-12-23T17:54:21.569Z,22.80
2022-12-23T17:56:51.287Z,20.90
2022-12-23T17:59:19.514Z,21.73
2022-12-23T18:01:47.902Z,24.88
2022-12-23T18:04:16.087Z,26.02
2022-12-23T18:06:44.226Z,25.52
2022-12-23T18:09:12.347Z,28.60
2022-12-23T18:11:43.435Z,30.27
2022-12-23T18:14:17.530Z,27.40
2022-12-23T18:16:46.493Z,35.88
2022-12-23T18:19:18.107Z,37.40
2022-12-23T18:21:46.712Z,34.78
2022-12-23T18:24:14.852Z,32.95
2022-12-23T18:26:43.038Z,31.00
2022-12-23T18:29:11.293Z,33.42
2022-12-23T18:31:51.383Z,40.85
2022-12-23T18:34:20.729Z,33.80
2022-12-23T18:36:51.686Z,39.13
2022-12-23T18:39:20.178Z,40.53
2022-12-23T18:41:48.324Z,36.85
2022-12-23T18:44:18.520Z,38.30
2022-12-23T18:46:48.355Z,41.55
2022-12-23T18:49:16.949Z,41.42
2022-12-23T18:51:45.034Z,32.10
2022-12-23T18:54:15.552Z,29.88
2022-12-23T18:56:44.320Z,41.08
2022-12-23T18:59:18.591Z,38.80
2022-12-23T19:01:50.072Z,42.83
2022-12-23T19:04:18.775Z,41.97
2022-12-23T19:06:47.264Z,44.10
2022-12-23T19:09:17.965Z,47.67
2022-12-23T19:11:48.330Z,36.95
2022-12-23T19:14:16.716Z,34.83
2022-12-23T19:16:50.870Z,40.78
2022-12-23T19:19:21.069Z,31.08
2022-12-23T19:21:49.170Z,30.38
2022-12-23T19:24:17.307Z,37.60
2022-12-23T19:26:45.627Z,34.58
2022-12-23T19:29:13.767Z,34.85
2022-12-23T19:31:42.120Z,40.63
2022-12-23T19:34:15.047Z,30.00
2022-12-23T19:36:45.304Z,37.45
2022-12-23T19:39:16.795Z,31.42
2022-12-23T19:41:45.623Z,33.22
2022-12-23T19:44:13.837Z,30.23
2022-12-23T19:46:42.230Z,31.40
2022-12-23T19:49:15.632Z,33.13
2022-12-23T19:51:49.121Z,35.03
2022-12-23T19:54:17.608Z,36.95
2022-12-23T19:56:46.370Z,39.72
2022-12-23T19:59:14.490Z,29.08
2022-12-23T20:01:42.620Z,37.85
2022-12-23T20:04:11.286Z,39.80
2022-12-23T20:06:43.427Z,35.88
2022-12-23T20:09:14.219Z,39.67
2022-12-23T20:11:44.523Z,31.15
2022-12-23T20:14:13.084Z,32.10
2022-12-23T20:16:41.960Z,38.08
2022-12-23T20:19:10.134Z,34.22
2022-12-23T20:21:38.473Z,28.98
2022-12-23T20:24:07.735Z,36.40
2022-12-23T20:26:37.307Z,30.63
2022-12-23T20:29:05.679Z,24.85
2022-12-23T20:31:35.545Z,23.00
2022-12-23T20:34:04.081Z,29.48
2022-12-23T20:36:34.114Z,28.08
2022-12-23T20:39:03.527Z,23.30
2022-12-23T20:41:32.877Z,27.48
2022-12-23T20:44:32.996Z,26.55
2022-12-23T20:46:50.706Z,22.90
2022-12-23T20:49:18.842Z,21.35
2022-12-23T20:51:46.891Z,20.20
2022-12-23T20:54:15.060Z,21.83
2022-12-23T20:56:43.115Z,17.75
2022-12-23T20:59:12.694Z,21.73
2022-12-23T21:01:41.691Z,16.02
2022-12-23T21:04:12.835Z,12.15
2022-12-23T21:06:41.147Z,15.63
2022-12-23T21:09:12.504Z,14.00
2022-12-23T21:11:43.018Z,14.48
2022-12-23T21:14:13.798Z,13.38
2022-12-23T21:16:42.770Z,17.33
2022-12-23T21:19:16.565Z,19.00
2022-12-23T21:21:44.681Z,27.63
2022-12-23T21:24:13.443Z,24.67
2022-12-23T21:26:42.015Z,24.98
2022-12-23T21:29:13.109Z,22.73
2022-12-23T21:31:42.251Z,33.15
2022-12-23T21:34:14.474Z,19.73
2022-12-23T21:36:43.791Z,24.58
2022-12-23T21:39:15.398Z,33.95
2022-12-23T21:41:43.891Z,24.20
2022-12-23T21:44:14.904Z,31.58
2022-12-23T21:46:43.211Z,23.88
2022-12-23T21:49:12.008Z,25.10
2022-12-23T21:51:41.447Z,25.63
2022-12-23T21:54:11.309Z,17.85
2022-12-23T21:56:39.865Z,21.65
2022-12-23T21:59:12.233Z,26.17
2022-12-23T22:01:42.968Z,25.63
2022-12-23T22:04:11.372Z,20.88
2022-12-23T22:06:43.710Z,17.20
2022-12-23T22:09:16.292Z,22.05
2022-12-23T22:11:44.683Z,17.63
2022-12-23T22:14:14.948Z,25.48
2022-12-23T22:16:44.688Z,27.30
2022-12-23T22:19:13.605Z,26.23
2022-12-23T22:21:42.809Z,33.85
2022-12-23T22:24:11.432Z,32.47
2022-12-23T22:26:40.652Z,30.20
2022-12-23T22:29:08.834Z,25.50
2022-12-23T22:31:40.589Z,33.08
2022-12-23T22:34:13.841Z,24.35
2022-12-23T22:36:42.018Z,29.17
2022-12-23T22:39:17.636Z,23.58
2022-12-23T22:41:48.156Z,26.38
2022-12-23T22:44:16.371Z,21.48
2022-12-23T22:46:44.674Z,28.63
2022-12-23T22:49:15.329Z,28.55
2022-12-23T22:51:43.852Z,25.23
2022-12-23T22:54:11.964Z,24.60
2022-12-23T22:56:42.833Z,26.33
2022-12-23T22:59:22.226Z,22.02
2022-12-23T23:01:54.144Z,23.83
2022-12-23T23:04:24.080Z,26.38
2022-12-23T23:06:52.178Z,26.27
2022-12-23T23:09:21.695Z,22.80
2022-12-23T23:11:50.180Z,23.50
2022-12-23T23:14:19.280Z,22.42
2022-12-23T23:16:47.406Z,28.08
2022-12-23T23:19:16.506Z,22.20
2022-12-23T23:21:46.008Z,25.67
2022-12-23T23:24:14.303Z,30.65
2022-12-23T23:26:42.552Z,25.88
2022-12-23T23:29:10.566Z,22.65
2022-12-23T23:31:42.495Z,22.48
2022-12-23T23:34:11.707Z,23.15
2022-12-23T23:36:40.459Z,28.65
2022-12-23T23:39:11.975Z,30.05
2022-12-23T23:41:41.061Z,29.73
2022-12-23T23:44:09.553Z,21.05
2022-12-23T23:46:37.767Z,24.20
2022-12-23T23:49:05.875Z,27.20
2022-12-23T23:51:34.071Z,24.52
2022-12-23T23:54:02.460Z,18.83
2022-12-23T23:56:37.839Z,29.85
2022-12-23T23:59:07.211Z,30.20
